createdAt,value
2022-12-04T00:01:15.093Z,63.41
2022-12-04T00:03:43.148Z,63.25
2022-12-04T00:06:13.058Z,63.91
2022-12-04T00:08:40.977Z,63.57
2022-12-04T00:11:10.537Z,63.73
2022-12-04T00:13:40.864Z,63.62
2022-12-04T00:16:11.034Z,63.48
2022-12-04T00:18:38.978Z,63.63
2022-12-04T00:21:07.758Z,63.18
2022-12-04T00:23:36.448Z,63.53
2022-12-04T00:26:06.222Z,63.77
2022-12-04T00:28:35.275Z,64.09
2022-12-04T00:31:06.641Z,63.90
2022-12-04T00:33:35.482Z,64.19
2022-12-04T00:36:06.336Z,64.49
2022-12-04T00:38:34.244Z,64.74
2022-12-04T00:41:02.214Z,64.82
2022-12-04T00:43:31.968Z,65.32
2022-12-04T00:45:59.893Z,65.43
2022-12-04T00:48:28.995Z,65.07
2022-12-04T00:50:58.321Z,64.97
2022-12-04T00:53:26.051Z,64.89
2022-12-04T00:55:53.857Z,64.54
2022-12-04T00:58:21.563Z,64.44
2022-12-04T01:00:49.234Z,64.01
2022-12-04T01:03:17.129Z,63.51
2022-12-04T01:05:46.930Z,63.63
2022-12-04T01:08:14.742Z,63.59
2022-12-04T01:10:43.651Z,63.60
2022-12-04T01:13:11.375Z,63.65
2022-12-04T01:15:40.367Z,64.07
2022-12-04T01:18:08.560Z,63.94
2022-12-04T01:20:36.365Z,63.92
2022-12-04T01:23:05.747Z,63.79
2022-12-04T01:25:33.811Z,63.74
2022-12-04T01:28:01.521Z,63.32
2022-12-04T01:30:29.713Z,63.51
2022-12-04T01:32:57.512Z,63.31
2022-12-04T01:35:25.196Z,63.94
2022-12-04T01:37:52.947Z,63.99
2022-12-04T01:40:22.134Z,63.85
2022-12-04T01:42:53.834Z,64.03
2022-12-04T01:45:49.618Z,64.05
2022-12-04T01:48:23.951Z,63.82
2022-12-04T01:50:55.328Z,63.42
2022-12-04T01:53:23.096Z,63.76
2022-12-04T01:55:52.257Z,63.92
2022-12-04T01:58:25.005Z,63.66
2022-12-04T02:00:58.509Z,63.45
2022-12-04T02:03:26.869Z,63.80
2022-12-04T02:05:54.535Z,63.86
2022-12-04T02:08:22.747Z,63.88
2022-12-04T02:11:04.522Z,63.62
2022-12-04T02:13:37.981Z,63.32
2022-12-04T02:16:14.328Z,63.22
2022-12-04T02:18:52.503Z,63.10
2022-12-04T02:21:25.318Z,63.35
2022-12-04T02:24:13.600Z,63.51
2022-12-04T02:26:50.264Z,63.94
2022-12-04T02:29:29.175Z,63.64
2022-12-04T02:32:04.204Z,63.73
2022-12-04T02:34:41.686Z,63.72
2022-12-04T02:37:15.506Z,64.38
2022-12-04T02:39:47.286Z,64.39
2022-12-04T02:42:20.418Z,64.12
2022-12-04T02:44:54.763Z,64.32
2022-12-04T02:47:24.952Z,64.45
2022-12-04T02:49:56.771Z,64.40
2022-12-04T02:52:32.276Z,63.95
2022-12-04T02:55:08.362Z,63.95
2022-12-04T02:57:41.887Z,64.28
2022-12-04T03:00:12.408Z,64.18
2022-12-04T03:02:45.809Z,63.88
2022-12-04T03:05:16.710Z,63.73
2022-12-04T03:07:48.001Z,63.82
2022-12-04T03:10:19.851Z,63.70
2022-12-04T03:12:51.949Z,63.73
2022-12-04T03:15:27.742Z,63.75
2022-12-04T03:18:01.187Z,63.35
2022-12-04T03:20:32.026Z,63.57
2022-12-04T03:23:10.248Z,63.17
2022-12-04T03:25:44.479Z,63.83
2022-12-04T03:28:22.008Z,63.65
2022-12-04T03:30:59.655Z,63.79
2022-12-04T03:33:33.332Z,63.84
2022-12-04T03:36:05.184Z,63.66
2022-12-04T03:38:40.312Z,64.22
2022-12-04T03:41:14.992Z,64.53
2022-12-04T03:43:51.728Z,64.63
2022-12-04T03:46:29.106Z,64.79
2022-12-04T03:49:03.326Z,64.41
2022-12-04T03:51:36.007Z,64.05
2022-12-04T03:54:07.568Z,63.95
2022-12-04T03:56:40.740Z,64.23
2022-12-04T03:59:13.545Z,64.21
2022-12-04T04:01:46.050Z,64.18
2022-12-04T04:04:19.169Z,64.07
2022-12-04T04:06:54.966Z,64.09
2022-12-04T04:09:25.719Z,64.34
2022-12-04T04:11:58.606Z,63.88
2022-12-04T04:14:51.360Z,63.79
2022-12-04T04:17:43.057Z,63.31
2022-12-04T04:20:33.941Z,63.41
2022-12-04T04:23:24.349Z,63.52
2022-12-04T04:25:54.064Z,63.54
2022-12-04T04:28:30.808Z,63.31
2022-12-04T04:31:07.241Z,63.59
2022-12-04T04:33:47.064Z,63.84
2022-12-04T04:36:23.092Z,64.34
2022-12-04T04:39:00.955Z,64.09
2022-12-04T04:41:36.767Z,64.51
2022-12-04T04:44:12.854Z,64.57
2022-12-04T04:46:46.940Z,64.90
2022-12-04T04:49:17.625Z,64.59
2022-12-04T04:51:46.217Z,64.81
2022-12-04T04:54:17.085Z,64.79
2022-12-04T04:56:47.544Z,64.36
2022-12-04T04:59:16.291Z,64.42
2022-12-04T05:01:46.782Z,64.54
2022-12-04T05:04:16.021Z,64.94
2022-12-04T05:06:43.743Z,65.06
2022-12-04T05:09:13.709Z,65.30
2022-12-04T05:11:43.343Z,65.12
2022-12-04T05:14:11.057Z,64.69
2022-12-04T05:16:43.112Z,64.10
2022-12-04T05:19:28.151Z,64.38
2022-12-04T05:21:57.507Z,64.51
2022-12-04T05:24:25.183Z,64.76
2022-12-04T05:26:52.870Z,65.03
2022-12-04T05:29:20.807Z,64.92
2022-12-04T05:31:48.519Z,64.60
2022-12-04T05:34:16.242Z,64.21
2022-12-04T05:36:44.007Z,64.33
2022-12-04T05:39:13.045Z,65.11
2022-12-04T05:41:40.765Z,65.16
2022-12-04T05:44:08.423Z,64.91
2022-12-04T05:46:36.197Z,65.05
2022-12-04T05:49:03.900Z,64.91
2022-12-04T05:51:31.571Z,65.69
2022-12-04T05:53:59.252Z,66.18
2022-12-04T05:56:28.345Z,66.09
2022-12-04T05:58:56.055Z,65.80
2022-12-04T06:01:25.191Z,65.84
2022-12-04T06:03:53.078Z,65.95
2022-12-04T06:06:23.666Z,66.22
2022-12-04T06:08:54.451Z,65.67
2022-12-04T06:11:25.369Z,65.18
2022-12-04T06:13:55.078Z,65.27
2022-12-04T06:16:24.687Z,65.28
2022-12-04T06:18:54.016Z,65.40
2022-12-04T06:21:25.599Z,65.59
2022-12-04T06:23:53.997Z,65.77
2022-12-04T06:26:22.530Z,65.54
2022-12-04T06:28:50.261Z,65.21
2022-12-04T06:31:20.040Z,65.57
2022-12-04T06:33:48.121Z,65.42
2022-12-04T06:36:18.396Z,65.44
2022-12-04T06:38:46.501Z,65.42
2022-12-04T06:41:16.217Z,65.08
2022-12-04T06:43:44.124Z,65.37
2022-12-04T06:46:14.036Z,64.77
2022-12-04T06:48:43.421Z,65.11
2022-12-04T06:51:13.296Z,65.20
2022-12-04T06:53:41.301Z,65.41
2022-12-04T06:56:12.093Z,65.45
2022-12-04T06:58:39.840Z,65.70
2022-12-04T07:01:08.708Z,66.40
2022-12-04T07:03:36.771Z,66.28
2022-12-04T07:06:17.400Z,66.55
2022-12-04T07:08:47.174Z,66.68
2022-12-04T07:11:15.378Z,66.84
2022-12-04T07:13:43.777Z,66.64
2022-12-04T07:16:14.264Z,66.62
2022-12-04T07:18:42.231Z,66.26
2022-12-04T07:21:11.793Z,66.35
2022-12-04T07:23:40.957Z,66.27
2022-12-04T07:26:13.065Z,66.80
2022-12-04T07:28:41.879Z,66.82
2022-12-04T07:31:12.053Z,66.76
2022-12-04T07:33:40.085Z,66.72
2022-12-04T07:36:10.543Z,67.23
2022-12-04T07:38:38.368Z,66.97
2022-12-04T07:41:08.488Z,67.38
2022-12-04T07:43:36.274Z,67.17
2022-12-04T07:46:06.832Z,66.71
2022-12-04T07:48:34.980Z,66.38
2022-12-04T07:51:07.071Z,66.40
2022-12-04T07:53:36.013Z,67.16
2022-12-04T07:56:04.269Z,67.36
2022-12-04T07:58:34.250Z,67.59
2022-12-04T08:01:09.730Z,67.28
2022-12-04T08:03:40.943Z,66.72
2022-12-04T08:06:13.448Z,67.13
2022-12-04T08:08:41.261Z,66.70
2022-12-04T08:11:10.366Z,66.51
2022-12-04T08:13:39.627Z,66.72
2022-12-04T08:16:09.527Z,67.40
2022-12-04T08:18:37.372Z,67.05
2022-12-04T08:21:06.734Z,66.86
2022-12-04T08:23:35.181Z,67.07
2022-12-04T08:26:03.798Z,67.12
2022-12-04T08:28:32.852Z,67.33
2022-12-04T08:31:05.820Z,67.69
2022-12-04T08:33:35.179Z,67.42
2022-12-04T08:36:03.852Z,67.23
2022-12-04T08:38:31.642Z,67.37
2022-12-04T08:41:01.119Z,67.27
2022-12-04T08:43:28.880Z,67.65
2022-12-04T08:45:58.195Z,67.37
2022-12-04T08:48:27.947Z,67.31
2022-12-04T08:50:56.264Z,67.08
2022-12-04T08:53:24.655Z,67.42
2022-12-04T08:55:52.805Z,67.26
2022-12-04T08:58:21.038Z,67.10
2022-12-04T09:00:48.770Z,67.08
2022-12-04T09:03:18.368Z,67.05
2022-12-04T09:05:47.573Z,67.28
2022-12-04T09:08:16.918Z,67.36
2022-12-04T09:10:45.650Z,67.55
2022-12-04T09:13:13.313Z,67.38
2022-12-04T09:15:41.939Z,67.24
2022-12-04T09:18:10.857Z,67.30
2022-12-04T09:20:38.671Z,67.31
2022-12-04T09:23:07.891Z,67.22
2022-12-04T09:25:37.627Z,67.50
2022-12-04T09:28:06.066Z,67.72
2022-12-04T09:30:33.794Z,67.63
2022-12-04T09:33:07.808Z,67.58
2022-12-04T09:35:35.570Z,67.34
2022-12-04T09:38:03.213Z,67.43
2022-12-04T09:40:42.329Z,67.60
2022-12-04T09:43:20.828Z,67.69
2022-12-04T09:45:53.542Z,67.78
2022-12-04T09:48:23.516Z,68.24
2022-12-04T09:50:52.866Z,68.00
2022-12-04T09:53:24.371Z,67.40
2022-12-04T09:55:57.367Z,67.27
2022-12-04T09:58:29.578Z,67.79
2022-12-04T10:00:59.426Z,67.83
2022-12-04T10:03:31.338Z,67.67
2022-12-04T10:06:09.168Z,66.95
2022-12-04T10:08:40.553Z,67.40
2022-12-04T10:11:16.346Z,67.56
2022-12-04T10:14:11.415Z,67.40
2022-12-04T10:16:53.456Z,67.54
2022-12-04T10:19:31.523Z,67.74
2022-12-04T10:22:09.407Z,67.40
2022-12-04T10:24:43.165Z,67.12
2022-12-04T10:27:16.037Z,67.53
2022-12-04T10:29:54.984Z,67.31
2022-12-04T10:32:35.441Z,66.94
2022-12-04T10:35:24.882Z,67.37
2022-12-04T10:38:05.552Z,67.82
2022-12-04T10:40:54.092Z,68.04
2022-12-04T10:43:43.394Z,68.22
2022-12-04T10:46:22.852Z,68.41
2022-12-04T10:48:53.977Z,68.27
2022-12-04T10:51:25.296Z,67.90
2022-12-04T10:53:55.975Z,67.25
2022-12-04T10:56:39.257Z,67.26
2022-12-04T10:59:20.359Z,67.60
2022-12-04T11:01:51.677Z,67.22
2022-12-04T11:04:29.897Z,67.32
2022-12-04T11:07:05.274Z,67.25
2022-12-04T11:09:35.120Z,67.13
2022-12-04T11:12:09.156Z,67.03
2022-12-04T11:14:42.736Z,67.07
2022-12-04T11:17:23.187Z,67.25
2022-12-04T11:20:00.863Z,67.20
2022-12-04T11:22:29.095Z,67.00
2022-12-04T11:25:12.107Z,67.18
2022-12-04T11:27:40.737Z,67.16
2022-12-04T11:30:17.702Z,67.28
2022-12-04T11:32:47.725Z,67.00
2022-12-04T11:35:22.273Z,67.17
2022-12-04T11:37:59.653Z,67.31
2022-12-04T11:40:33.146Z,67.55
2022-12-04T11:43:09.349Z,67.55
2022-12-04T11:45:54.716Z,67.94
2022-12-04T11:48:31.281Z,67.60
2022-12-04T11:51:10.707Z,67.02
2022-12-04T11:53:54.287Z,67.45
2022-12-04T11:56:29.575Z,67.89
2022-12-04T11:59:29.942Z,68.36
2022-12-04T12:02:17.565Z,68.39
2022-12-04T12:05:00.840Z,68.86
2022-12-04T12:08:03.446Z,69.64
2022-12-04T12:10:48.084Z,69.71
2022-12-04T12:13:28.528Z,70.26
2022-12-04T12:16:18.339Z,70.20
2022-12-04T12:19:16.601Z,70.56
2022-12-04T12:21:56.167Z,70.76
2022-12-04T12:24:28.753Z,70.55
2022-12-04T12:27:09.751Z,71.09
2022-12-04T12:29:56.083Z,71.18
2022-12-04T12:32:46.013Z,71.44
2022-12-04T12:35:24.122Z,71.81
2022-12-04T12:37:54.812Z,72.42
2022-12-04T12:40:31.984Z,72.65
2022-12-04T12:43:05.952Z,72.89
2022-12-04T12:45:41.889Z,72.32
2022-12-04T12:48:20.791Z,71.54
2022-12-04T12:51:14.996Z,71.62
2022-12-04T12:53:49.336Z,71.45
2022-12-04T12:56:20.192Z,71.67
2022-12-04T12:58:52.747Z,71.71
2022-12-04T13:01:24.677Z,71.73
2022-12-04T13:03:58.443Z,72.22
2022-12-04T13:06:32.879Z,72.53
2022-12-04T13:09:11.978Z,72.33
2022-12-04T13:11:45.475Z,72.13
2022-12-04T13:14:15.221Z,72.33
2022-12-04T13:16:54.211Z,72.47
2022-12-04T13:19:27.445Z,72.74
2022-12-04T13:22:06.416Z,72.34
2022-12-04T13:25:04.152Z,72.34
2022-12-04T13:27:46.347Z,72.56
2022-12-04T13:30:20.251Z,72.73
2022-12-04T13:33:17.377Z,72.54
2022-12-04T13:36:15.416Z,72.62
2022-12-04T13:38:58.785Z,72.64
2022-12-04T13:41:28.650Z,72.51
2022-12-04T13:43:57.577Z,72.28
2022-12-04T13:46:34.200Z,72.34
2022-12-04T13:49:10.920Z,72.34
2022-12-04T13:51:49.129Z,72.35
2022-12-04T13:54:29.691Z,71.65
2022-12-04T13:57:10.549Z,72.60
2022-12-04T13:59:40.264Z,73.08
2022-12-04T14:02:24.887Z,72.82
2022-12-04T14:04:58.011Z,73.26
2022-12-04T14:07:29.966Z,73.35
2022-12-04T14:10:04.601Z,73.50
2022-12-04T14:12:36.195Z,73.65
2022-12-04T14:15:07.645Z,73.52
2022-12-04T14:17:37.510Z,73.43
2022-12-04T14:20:08.382Z,73.13
2022-12-04T14:22:44.852Z,72.90
2022-12-04T14:25:36.541Z,73.29
2022-12-04T14:28:15.977Z,73.58
2022-12-04T14:30:45.732Z,73.67
2022-12-04T14:33:20.161Z,74.44
2022-12-04T14:35:51.618Z,73.97
2022-12-04T14:38:22.659Z,73.63
2022-12-04T14:40:56.124Z,73.85
2022-12-04T14:43:26.868Z,74.44
2022-12-04T14:46:01.455Z,73.65
2022-12-04T14:48:36.777Z,74.22
2022-12-04T14:51:12.003Z,74.33
2022-12-04T14:53:47.166Z,74.72
2022-12-04T14:56:38.831Z,74.63
2022-12-04T14:59:08.338Z,74.52
2022-12-04T15:01:39.107Z,75.22
2022-12-04T15:04:14.932Z,75.42
2022-12-04T15:06:44.956Z,74.98
2022-12-04T15:09:47.341Z,74.47
2022-12-04T15:12:36.462Z,74.58
2022-12-04T15:15:13.900Z,74.57
2022-12-04T15:17:42.036Z,74.96
2022-12-04T15:20:17.938Z,75.07
2022-12-04T15:22:46.225Z,74.81
2022-12-04T15:25:20.360Z,75.35
2022-12-04T15:27:52.103Z,75.53
2022-12-04T15:30:22.404Z,76.41
2022-12-04T15:32:53.060Z,76.16
2022-12-04T15:35:26.494Z,75.81
2022-12-04T15:37:54.941Z,75.14
2022-12-04T15:40:26.603Z,76.30
2022-12-04T15:43:06.867Z,75.99
2022-12-04T15:45:34.915Z,75.72
2022-12-04T15:48:02.972Z,75.54
2022-12-04T15:50:31.825Z,75.09
2022-12-04T15:53:03.622Z,74.78
2022-12-04T15:55:34.275Z,74.43
2022-12-04T15:58:07.510Z,74.30
2022-12-04T16:00:37.807Z,74.22
2022-12-04T16:03:20.078Z,74.48
2022-12-04T16:05:49.085Z,74.68
2022-12-04T16:08:24.966Z,74.75
2022-12-04T16:11:01.030Z,75.05
2022-12-04T16:13:32.808Z,74.72
2022-12-04T16:16:01.049Z,74.70
2022-12-04T16:18:29.830Z,74.18
2022-12-04T16:20:57.673Z,74.09
2022-12-04T16:23:26.916Z,74.44
2022-12-04T16:25:54.648Z,74.18
2022-12-04T16:28:22.420Z,74.21
2022-12-04T16:30:53.549Z,74.01
2022-12-04T16:33:21.329Z,73.93
2022-12-04T16:35:49.122Z,74.30
2022-12-04T16:38:18.093Z,73.89
2022-12-04T16:40:46.794Z,73.84
2022-12-04T16:43:16.479Z,73.66
2022-12-04T16:45:47.969Z,73.72
2022-12-04T16:48:17.028Z,73.70
2022-12-04T16:50:46.008Z,73.84
2022-12-04T16:53:17.430Z,73.81
2022-12-04T16:55:46.976Z,74.21
2022-12-04T16:58:15.561Z,74.61
2022-12-04T17:00:44.745Z,75.08
2022-12-04T17:03:21.726Z,74.88
2022-12-04T17:05:49.502Z,74.50
2022-12-04T17:08:17.291Z,74.59
2022-12-04T17:10:45.377Z,74.93
2022-12-04T17:13:13.137Z,74.75
2022-12-04T17:15:40.862Z,74.82
2022-12-04T17:18:12.923Z,74.72
2022-12-04T17:20:45.365Z,74.89
2022-12-04T17:23:13.652Z,75.10
2022-12-04T17:25:41.561Z,75.48
2022-12-04T17:28:09.446Z,75.51
2022-12-04T17:30:37.209Z,75.21
2022-12-04T17:33:05.497Z,74.95
2022-12-04T17:35:33.350Z,74.60
2022-12-04T17:38:06.160Z,74.41
2022-12-04T17:40:34.355Z,75.05
2022-12-04T17:43:03.939Z,74.81
2022-12-04T17:45:31.744Z,75.51
2022-12-04T17:48:02.576Z,77.36
2022-12-04T17:50:36.184Z,76.88
2022-12-04T17:53:05.309Z,75.99
2022-12-04T17:55:35.358Z,75.42
2022-12-04T17:58:03.138Z,74.85
2022-12-04T18:00:31.010Z,74.29
2022-12-04T18:02:58.779Z,74.05
2022-12-04T18:05:26.532Z,73.91
2022-12-04T18:07:54.398Z,73.99
2022-12-04T18:10:27.889Z,74.35
2022-12-04T18:12:59.062Z,73.92
2022-12-04T18:15:26.798Z,74.46
2022-12-04T18:17:55.583Z,75.37
2022-12-04T18:20:23.277Z,75.42
2022-12-04T18:22:51.075Z,75.07
2022-12-04T18:25:18.961Z,75.28
2022-12-04T18:27:48.061Z,75.42
2022-12-04T18:30:16.053Z,75.46
2022-12-04T18:32:45.113Z,75.12
2022-12-04T18:35:12.807Z,74.64
2022-12-04T18:37:40.619Z,74.34
2022-12-04T18:40:09.659Z,74.22
2022-12-04T18:42:37.725Z,74.39
2022-12-04T18:45:07.866Z,74.82
2022-12-04T18:47:36.455Z,75.25
2022-12-04T18:50:04.318Z,75.03
2022-12-04T18:52:36.055Z,75.15
2022-12-04T18:55:03.809Z,74.94
2022-12-04T18:57:31.581Z,74.88
2022-12-04T18:59:59.486Z,75.35
2022-12-04T19:02:28.930Z,75.00
2022-12-04T19:04:56.828Z,75.13
2022-12-04T19:07:24.495Z,75.59
2022-12-04T19:10:21.954Z,75.47
2022-12-04T19:12:39.897Z,75.08
2022-12-04T19:15:08.376Z,75.25
2022-12-04T19:17:37.568Z,74.81
2022-12-04T19:20:10.899Z,75.62
2022-12-04T19:22:39.219Z,75.83
2022-12-04T19:25:08.453Z,76.01
2022-12-04T19:27:36.098Z,76.09
2022-12-04T19:30:03.752Z,76.40
2022-12-04T19:32:31.465Z,76.84
2022-12-04T19:35:00.499Z,76.90
2022-12-04T19:37:28.254Z,76.70
2022-12-04T19:39:59.311Z,76.43
2022-12-04T19:42:27.199Z,76.31
2022-12-04T19:44:54.863Z,76.75
2022-12-04T19:47:22.671Z,76.39
2022-12-04T19:49:50.518Z,75.86
2022-12-04T19:52:19.603Z,75.98
2022-12-04T19:54:47.372Z,75.94
2022-12-04T19:57:15.674Z,75.84
2022-12-04T19:59:46.651Z,76.49
2022-12-04T20:02:15.152Z,76.19
2022-12-04T20:04:43.188Z,75.35
2022-12-04T20:07:11.010Z,75.19
2022-12-04T20:09:40.239Z,74.94
2022-12-04T20:12:08.577Z,75.18
2022-12-04T20:14:36.263Z,75.70
2022-12-04T20:17:05.111Z,75.11
2022-12-04T20:19:33.004Z,74.82
2022-12-04T20:22:00.706Z,75.06
2022-12-04T20:24:28.642Z,74.95
2022-12-04T20:26:57.650Z,75.45
2022-12-04T20:29:25.389Z,75.93
2022-12-04T20:31:53.149Z,76.22
2022-12-04T20:34:21.027Z,75.79
2022-12-04T20:36:50.309Z,75.86
2022-12-04T20:39:19.677Z,76.03
2022-12-04T20:41:48.179Z,76.58
2022-12-04T20:44:19.683Z,76.02
2022-12-04T20:46:48.272Z,76.45
2022-12-04T20:49:21.592Z,76.26
2022-12-04T20:51:50.216Z,76.10
2022-12-04T20:54:20.308Z,75.69
2022-12-04T20:56:49.242Z,75.35
2022-12-04T20:59:20.253Z,74.91
2022-12-04T21:01:48.919Z,74.83
2022-12-04T21:04:18.528Z,74.80
2022-12-04T21:06:49.466Z,75.20
2022-12-04T21:09:19.766Z,75.00
2022-12-04T21:11:50.139Z,74.75
2022-12-04T21:14:38.142Z,74.95
2022-12-04T21:17:11.668Z,75.16
2022-12-04T21:19:39.661Z,75.50
2022-12-04T21:22:07.467Z,75.32
2022-12-04T21:24:38.787Z,75.33
2022-12-04T21:27:07.782Z,74.62
2022-12-04T21:29:37.235Z,74.73
2022-12-04T21:32:06.053Z,74.93
2022-12-04T21:34:34.431Z,75.04
2022-12-04T21:37:02.130Z,74.90
2022-12-04T21:39:29.918Z,74.97
2022-12-04T21:42:15.294Z,75.24
2022-12-04T21:44:44.293Z,75.27
2022-12-04T21:47:12.257Z,75.10
2022-12-04T21:49:39.973Z,75.58
2022-12-04T21:52:07.706Z,75.72
2022-12-04T21:54:35.368Z,75.79
2022-12-04T21:57:03.338Z,75.51
2022-12-04T21:59:31.329Z,75.65
2022-12-04T22:02:00.520Z,75.92
2022-12-04T22:04:28.463Z,75.83
2022-12-04T22:06:56.170Z,75.48
2022-12-04T22:09:25.996Z,75.19
2022-12-04T22:11:53.683Z,75.57
2022-12-04T22:14:21.410Z,75.49
2022-12-04T22:16:51.718Z,75.71
2022-12-04T22:19:21.015Z,75.80
2022-12-04T22:21:51.205Z,75.77
2022-12-04T22:24:18.845Z,75.74
2022-12-04T22:26:46.527Z,75.81
2022-12-04T22:29:48.620Z,75.93
2022-12-04T22:32:01.932Z,75.50
2022-12-04T22:34:31.089Z,75.79
2022-12-04T22:36:58.787Z,75.92
2022-12-04T22:39:26.693Z,76.44
2022-12-04T22:41:54.515Z,76.46
2022-12-04T22:44:22.266Z,76.25
2022-12-04T22:46:50.004Z,75.96
2022-12-04T22:49:17.813Z,76.23
2022-12-04T22:51:46.800Z,76.43
2022-12-04T22:54:18.207Z,76.39
2022-12-04T22:56:45.898Z,76.30
2022-12-04T22:59:13.629Z,76.75
2022-12-04T23:01:41.365Z,76.87
2022-12-04T23:04:09.099Z,76.63
2022-12-04T23:06:37.049Z,76.14
2022-12-04T23:09:08.951Z,75.64
2022-12-04T23:11:37.467Z,75.96
2022-12-04T23:14:09.187Z,76.38
2022-12-04T23:16:38.706Z,76.89
2022-12-04T23:19:07.509Z,76.58
2022-12-04T23:21:36.076Z,76.37
2022-12-04T23:24:04.045Z,76.12
2022-12-04T23:26:35.795Z,75.85
2022-12-04T23:29:05.335Z,76.07
2022-12-04T23:31:38.054Z,76.17
2022-12-04T23:34:07.154Z,77.12
2022-12-04T23:36:35.180Z,76.79
2022-12-04T23:39:02.866Z,76.71
2022-12-04T23:41:32.867Z,76.40
2022-12-04T23:44:00.503Z,76.28
2022-12-04T23:46:32.527Z,76.58
2022-12-04T23:49:01.186Z,76.79
2022-12-04T23:51:29.715Z,76.93
2022-12-04T23:53:57.708Z,77.06
2022-12-04T23:56:27.272Z,77.44
2022-12-04T23:58:58.398Z,77.46
